TimeCST,TemperatureF,Dew PointF,Humidity,Sea Level PressureIn,VisibilityMPH,Wind Direction,Wind SpeedMPH,Gust SpeedMPH,PrecipitationIn,Events,Conditions,WindDirDegrees,DateUTC
12:53 AM,24.1,12.0,60,30.30,10.0,NNW,8.1,-,N/A,,Mostly Cloudy,340,2014-01-15 06:53:00
1:53 AM,21.9,12.0,66,30.29,10.0,NW,6.9,-,N/A,,Partly Cloudy,320,2014-01-15 07:53:00
2:53 AM,18.0,10.0,71,30.29,10.0,NW,4.6,-,N/A,,Clear,310,2014-01-15 08:53:00
3:53 AM,17.1,10.0,74,30.29,10.0,WNW,5.8,-,N/A,,Partly Cloudy,290,2014-01-15 09:53:00
4:53 AM,19.9,12.9,74,30.27,10.0,WSW,3.5,-,N/A,,Overcast,240,2014-01-15 10:53:00
5:53 AM,19.0,12.0,74,30.27,10.0,SSW,5.8,-,N/A,,Mostly Cloudy,210,2014-01-15 11:53:00
6:53 AM,21.9,15.1,75,30.24,10.0,SSW,5.8,-,N/A,,Overcast,200,2014-01-15 12:53:00
7:53 AM,23.0,16.0,74,30.21,10.0,SSW,8.1,-,N/A,,Overcast,200,2014-01-15 13:53:00
8:53 AM,25.0,18.0,75,30.19,10.0,SSW,9.2,-,N/A,,Overcast,210,2014-01-15 14:53:00
9:53 AM,30.9,21.0,67,30.16,10.0,SW,11.5,-,N/A,,Overcast,230,2014-01-15 15:53:00
10:53 AM,35.1,21.9,59,30.13,10.0,SW,11.5,-,N/A,,Overcast,220,2014-01-15 16:53:00
11:53 AM,37.9,21.0,51,30.08,10.0,SSW,15.0,-,N/A,,Overcast,210,2014-01-15 17:53:00
12:53 PM,41.0,21.0,45,29.99,10.0,SW,16.1,-,N/A,,Overcast,220,2014-01-15 18:53:00
1:53 PM,44.1,21.0,40,29.93,10.0,SSW,16.1,-,N/A,,Overcast,210,2014-01-15 19:53:00
2:53 PM,48.9,23.0,36,29.90,10.0,WSW,15.0,24.2,N/A,,Partly Cloudy,240,2014-01-15 20:53:00
3:53 PM,48.9,24.1,38,29.88,10.0,WSW,15.0,-,N/A,,Overcast,240,2014-01-15 21:53:00
4:53 PM,48.0,25.0,41,29.86,10.0,SW,8.1,-,N/A,,Overcast,220,2014-01-15 22:53:00
5:53 PM,46.9,25.0,42,29.84,10.0,SW,9.2,-,N/A,,Mostly Cloudy,230,2014-01-15 23:53:00
6:48 PM,48.2,24.8,40,29.80,10.0,WNW,8.1,-,N/A,,Overcast,290,2014-01-16 00:48:00
6:53 PM,48.9,25.0,39,29.85,10.0,WNW,9.2,-,N/A,,Overcast,300,2014-01-16 00:53:00
7:53 PM,48.0,30.0,50,29.85,10.0,WNW,11.5,-,N/A,,Overcast,300,2014-01-16 01:53:00
8:53 PM,39.9,28.0,63,29.85,10.0,West,9.2,-,N/A,,Clear,280,2014-01-16 02:53:00
9:53 PM,42.1,28.9,60,29.86,10.0,WNW,8.1,-,N/A,,Overcast,290,2014-01-16 03:53:00
10:53 PM,46.9,28.0,48,29.88,10.0,NW,19.6,-,N/A,,Overcast,320,2014-01-16 04:53:00
11:53 PM,46.0,26.1,46,29.88,10.0,NNW,18.4,-,N/A,,Overcast,340,2014-01-16 05:53:00